sensor_id;sensor_type;location;lat;lon;timestamp;P1;durP1;ratioP1;P2;durP2;ratioP2
12921;SDS011;6528;48.086;16.282;2022-09-01T00:02:27;4.07;;;3.77;;
12921;SDS011;6528;48.086;16.282;2022-09-01T00:04:55;4.93;;;3.83;;
12921;SDS011;6528;48.086;16.282;2022-09-01T00:07:25;4.17;;;3.87;;
12921;SDS011;6528;48.086;16.282;2022-09-01T00:09:55;5.77;;;3.67;;
12921;SDS011;6528;48.086;16.282;2022-09-01T00:12:22;3.80;;;3.50;;
12921;SDS011;6528;48.086;16.282;2022-09-01T00:14:50;3.50;;;3.20;;
12921;SDS011;6528;48.086;16.282;2022-09-01T00:17:18;4.77;;;3.20;;
12921;SDS011;6528;48.086;16.282;2022-09-01T00:19:45;4.33;;;3.93;;
12921;SDS011;6528;48.086;16.282;2022-09-01T00:22:11;4.40;;;4.10;;
12921;SDS011;6528;48.086;16.282;2022-09-01T00:24:38;4.53;;;4.10;;
12921;SDS011;6528;48.086;16.282;2022-09-01T00:27:05;3.80;;;3.60;;
12921;SDS011;6528;48.086;16.282;2022-09-01T00:29:32;5.13;;;4.40;;
12921;SDS011;6528;48.086;16.282;2022-09-01T00:31:59;5.40;;;4.17;;
12921;SDS011;6528;48.086;16.282;2022-09-01T00:34:26;6.23;;;3.90;;
12921;SDS011;6528;48.086;16.282;2022-09-01T00:36:53;5.20;;;3.77;;
12921;SDS011;6528;48.086;16.282;2022-09-01T00:39:19;4.53;;;4.20;;
12921;SDS011;6528;48.086;16.282;2022-09-01T00:41:46;4.33;;;4.03;;
12921;SDS011;6528;48.086;16.282;2022-09-01T00:44:17;3.87;;;3.57;;
12921;SDS011;6528;48.086;16.282;2022-09-01T00:46:50;5.07;;;4.57;;
12921;SDS011;6528;48.086;16.282;2022-09-01T00:52:04;5.40;;;4.60;;
12921;SDS011;6528;48.086;16.282;2022-09-01T00:54:37;4.90;;;4.60;;
12921;SDS011;6528;48.086;16.282;2022-09-01T00:57:07;5.13;;;4.70;;
12921;SDS011;6528;48.086;16.282;2022-09-01T00:59:38;4.93;;;4.53;;
12921;SDS011;6528;48.086;16.282;2022-09-01T01:02:36;5.60;;;4.67;;
12921;SDS011;6528;48.086;16.282;2022-09-01T01:05:06;4.97;;;4.33;;
12921;SDS011;6528;48.086;16.282;2022-09-01T01:07:37;4.80;;;4.50;;
12921;SDS011;6528;48.086;16.282;2022-09-01T01:10:12;6.57;;;5.13;;
12921;SDS011;6528;48.086;16.282;2022-09-01T01:12:41;4.97;;;4.60;;
12921;SDS011;6528;48.086;16.282;2022-09-01T01:15:10;5.40;;;4.70;;
12921;SDS011;6528;48.086;16.282;2022-09-01T01:17:37;4.90;;;4.40;;
12921;SDS011;6528;48.086;16.282;2022-09-01T01:20:06;5.13;;;4.73;;
12921;SDS011;6528;48.086;16.282;2022-09-01T01:22:59;5.50;;;5.00;;
12921;SDS011;6528;48.086;16.282;2022-09-01T01:30:51;7.73;;;4.47;;
12921;SDS011;6528;48.086;16.282;2022-09-01T01:33:23;5.00;;;3.80;;
12921;SDS011;6528;48.086;16.282;2022-09-01T01:35:53;4.30;;;4.03;;
12921;SDS011;6528;48.086;16.282;2022-09-01T01:38:22;4.20;;;3.80;;
12921;SDS011;6528;48.086;16.282;2022-09-01T01:40:50;7.57;;;4.40;;
12921;SDS011;6528;48.086;16.282;2022-09-01T01:43:19;4.90;;;4.43;;
12921;SDS011;6528;48.086;16.282;2022-09-01T01:45:49;5.30;;;4.20;;
12921;SDS011;6528;48.086;16.282;2022-09-01T01:48:18;7.90;;;4.43;;
12921;SDS011;6528;48.086;16.282;2022-09-01T01:50:49;4.20;;;3.90;;
12921;SDS011;6528;48.086;16.282;2022-09-01T01:53:18;4.47;;;4.17;;
12921;SDS011;6528;48.086;16.282;2022-09-01T01:55:46;4.63;;;4.33;;
12921;SDS011;6528;48.086;16.282;2022-09-01T01:58:18;4.33;;;3.90;;
12921;SDS011;6528;48.086;16.282;2022-09-01T02:00:48;4.90;;;4.53;;
12921;SDS011;6528;48.086;16.282;2022-09-01T02:03:17;4.77;;;4.27;;
12921;SDS011;6528;48.086;16.282;2022-09-01T02:05:47;4.70;;;4.40;;
12921;SDS011;6528;48.086;16.282;2022-09-01T02:08:16;4.43;;;4.03;;
12921;SDS011;6528;48.086;16.282;2022-09-01T02:10:47;8.80;;;5.07;;
12921;SDS011;6528;48.086;16.282;2022-09-01T02:13:17;4.40;;;4.00;;
12921;SDS011;6528;48.086;16.282;2022-09-01T02:15:47;5.00;;;4.53;;
12921;SDS011;6528;48.086;16.282;2022-09-01T02:18:16;4.90;;;4.33;;
12921;SDS011;6528;48.086;16.282;2022-09-01T02:20:46;4.70;;;4.30;;
12921;SDS011;6528;48.086;16.282;2022-09-01T02:23:15;4.67;;;4.27;;
12921;SDS011;6528;48.086;16.282;2022-09-01T02:25:48;5.03;;;4.63;;
12921;SDS011;6528;48.086;16.282;2022-09-01T02:28:38;5.00;;;4.50;;
12921;SDS011;6528;48.086;16.282;2022-09-01T02:31:09;4.30;;;3.90;;
12921;SDS011;6528;48.086;16.282;2022-09-01T02:33:37;5.73;;;4.17;;
12921;SDS011;6528;48.086;16.282;2022-09-01T02:36:07;4.60;;;4.10;;
12921;SDS011;6528;48.086;16.282;2022-09-01T02:38:38;4.60;;;4.20;;
12921;SDS011;6528;48.086;16.282;2022-09-01T02:41:18;3.87;;;3.53;;
12921;SDS011;6528;48.086;16.282;2022-09-01T02:43:48;4.70;;;3.83;;
12921;SDS011;6528;48.086;16.282;2022-09-01T02:46:15;4.00;;;3.70;;
12921;SDS011;6528;48.086;16.282;2022-09-01T02:48:44;5.67;;;3.90;;
12921;SDS011;6528;48.086;16.282;2022-09-01T02:51:12;5.33;;;4.13;;
12921;SDS011;6528;48.086;16.282;2022-09-01T02:53:44;6.00;;;4.77;;
12921;SDS011;6528;48.086;16.282;2022-09-01T02:56:22;3.53;;;3.33;;
12921;SDS011;6528;48.086;16.282;2022-09-01T02:58:51;4.10;;;3.70;;
12921;SDS011;6528;48.086;16.282;2022-09-01T03:01:28;3.73;;;3.43;;
12921;SDS011;6528;48.086;16.282;2022-09-01T03:03:58;4.33;;;3.20;;
12921;SDS011;6528;48.086;16.282;2022-09-01T03:06:28;4.10;;;3.80;;
12921;SDS011;6528;48.086;16.282;2022-09-01T03:08:59;3.70;;;3.40;;
12921;SDS011;6528;48.086;16.282;2022-09-01T03:11:28;2.90;;;2.70;;
12921;SDS011;6528;48.086;16.282;2022-09-01T03:13:56;3.53;;;3.30;;
12921;SDS011;6528;48.086;16.282;2022-09-01T03:16:24;3.77;;;3.10;;
12921;SDS011;6528;48.086;16.282;2022-09-01T03:18:51;7.93;;;4.07;;
12921;SDS011;6528;48.086;16.282;2022-09-01T03:21:18;3.63;;;3.33;;
12921;SDS011;6528;48.086;16.282;2022-09-01T03:23:46;5.50;;;3.70;;
12921;SDS011;6528;48.086;16.282;2022-09-01T03:26:15;5.50;;;3.90;;
12921;SDS011;6528;48.086;16.282;2022-09-01T03:28:44;4.20;;;3.80;;
12921;SDS011;6528;48.086;16.282;2022-09-01T03:31:12;4.20;;;3.43;;
12921;SDS011;6528;48.086;16.282;2022-09-01T03:33:39;3.57;;;3.27;;
12921;SDS011;6528;48.086;16.282;2022-09-01T03:36:07;3.80;;;3.50;;
12921;SDS011;6528;48.086;16.282;2022-09-01T03:38:40;4.27;;;3.90;;
12921;SDS011;6528;48.086;16.282;2022-09-01T03:41:09;4.60;;;4.17;;
12921;SDS011;6528;48.086;16.282;2022-09-01T03:43:38;3.30;;;3.10;;
12921;SDS011;6528;48.086;16.282;2022-09-01T03:46:13;3.90;;;3.60;;
12921;SDS011;6528;48.086;16.282;2022-09-01T03:48:51;4.43;;;3.90;;
12921;SDS011;6528;48.086;16.282;2022-09-01T03:51:21;3.30;;;3.10;;
12921;SDS011;6528;48.086;16.282;2022-09-01T03:53:49;4.40;;;3.70;;
12921;SDS011;6528;48.086;16.282;2022-09-01T03:56:20;4.93;;;4.43;;
12921;SDS011;6528;48.086;16.282;2022-09-01T03:58:49;4.20;;;4.00;;
12921;SDS011;6528;48.086;16.282;2022-09-01T04:01:18;4.30;;;3.90;;
12921;SDS011;6528;48.086;16.282;2022-09-01T04:03:45;4.00;;;3.70;;
12921;SDS011;6528;48.086;16.282;2022-09-01T04:06:16;4.20;;;3.80;;
12921;SDS011;6528;48.086;16.282;2022-09-01T04:08:47;3.50;;;2.93;;
12921;SDS011;6528;48.086;16.282;2022-09-01T04:11:15;4.17;;;3.77;;
12921;SDS011;6528;48.086;16.282;2022-09-01T04:13:49;5.30;;;4.33;;
12921;SDS011;6528;48.086;16.282;2022-09-01T04:16:20;3.37;;;3.17;;
12921;SDS011;6528;48.086;16.282;2022-09-01T04:19:08;4.20;;;3.90;;
12921;SDS011;6528;48.086;16.282;2022-09-01T04:21:46;4.17;;;3.67;;
12921;SDS011;6528;48.086;16.282;2022-09-01T04:24:17;3.90;;;3.60;;
12921;SDS011;6528;48.086;16.282;2022-09-01T04:26:44;3.70;;;3.47;;
12921;SDS011;6528;48.086;16.282;2022-09-01T04:29:18;4.03;;;3.70;;
12921;SDS011;6528;48.086;16.282;2022-09-01T04:31:52;3.37;;;3.07;;
12921;SDS011;6528;48.086;16.282;2022-09-01T04:34:28;3.57;;;3.30;;
12921;SDS011;6528;48.086;16.282;2022-09-01T04:37:06;4.00;;;3.60;;
12921;SDS011;6528;48.086;16.282;2022-09-01T04:39:50;3.40;;;2.73;;
12921;SDS011;6528;48.086;16.282;2022-09-01T04:42:23;7.67;;;3.53;;
12921;SDS011;6528;48.086;16.282;2022-09-01T04:44:52;4.30;;;2.80;;
12921;SDS011;6528;48.086;16.282;2022-09-01T04:47:21;3.60;;;3.30;;
12921;SDS011;6528;48.086;16.282;2022-09-01T04:50:02;3.60;;;3.30;;
12921;SDS011;6528;48.086;16.282;2022-09-01T04:52:31;4.30;;;3.90;;
12921;SDS011;6528;48.086;16.282;2022-09-01T04:54:57;3.30;;;3.10;;
12921;SDS011;6528;48.086;16.282;2022-09-01T04:57:24;3.50;;;3.20;;
12921;SDS011;6528;48.086;16.282;2022-09-01T04:59:53;3.47;;;3.17;;
12921;SDS011;6528;48.086;16.282;2022-09-01T05:02:22;3.50;;;2.97;;
12921;SDS011;6528;48.086;16.282;2022-09-01T05:04:52;3.87;;;3.50;;
12921;SDS011;6528;48.086;16.282;2022-09-01T05:07:20;5.47;;;3.20;;
12921;SDS011;6528;48.086;16.282;2022-09-01T05:09:48;3.20;;;2.70;;
12921;SDS011;6528;48.086;16.282;2022-09-01T05:12:25;4.20;;;3.33;;
12921;SDS011;6528;48.086;16.282;2022-09-01T05:14:52;3.03;;;2.60;;
12921;SDS011;6528;48.086;16.282;2022-09-01T05:17:21;4.63;;;3.40;;
12921;SDS011;6528;48.086;16.282;2022-09-01T05:19:51;3.07;;;2.87;;
12921;SDS011;6528;48.086;16.282;2022-09-01T05:22:17;3.53;;;2.43;;
12921;SDS011;6528;48.086;16.282;2022-09-01T05:24:47;4.93;;;2.83;;
12921;SDS011;6528;48.086;16.282;2022-09-01T05:27:20;2.70;;;2.50;;
12921;SDS011;6528;48.086;16.282;2022-09-01T05:29:48;4.20;;;2.83;;
12921;SDS011;6528;48.086;16.282;2022-09-01T05:32:15;4.90;;;2.70;;
12921;SDS011;6528;48.086;16.282;2022-09-01T05:34:42;3.73;;;2.80;;
12921;SDS011;6528;48.086;16.282;2022-09-01T05:37:10;3.17;;;2.87;;
12921;SDS011;6528;48.086;16.282;2022-09-01T05:39:40;3.00;;;2.80;;
12921;SDS011;6528;48.086;16.282;2022-09-01T05:42:06;3.07;;;2.50;;
12921;SDS011;6528;48.086;16.282;2022-09-01T05:44:34;5.13;;;2.53;;
12921;SDS011;6528;48.086;16.282;2022-09-01T05:47:01;3.00;;;2.67;;
12921;SDS011;6528;48.086;16.282;2022-09-01T05:49:30;2.70;;;2.50;;
12921;SDS011;6528;48.086;16.282;2022-09-01T05:51:58;3.03;;;2.83;;
12921;SDS011;6528;48.086;16.282;2022-09-01T05:54:25;4.93;;;3.40;;
12921;SDS011;6528;48.086;16.282;2022-09-01T05:56:53;2.70;;;2.50;;
12921;SDS011;6528;48.086;16.282;2022-09-01T05:59:30;6.00;;;2.77;;
12921;SDS011;6528;48.086;16.282;2022-09-01T06:01:57;2.87;;;2.60;;
12921;SDS011;6528;48.086;16.282;2022-09-01T06:04:25;5.37;;;3.07;;
12921;SDS011;6528;48.086;16.282;2022-09-01T06:06:53;3.60;;;3.00;;
12921;SDS011;6528;48.086;16.282;2022-09-01T06:09:35;2.50;;;2.30;;
12921;SDS011;6528;48.086;16.282;2022-09-01T06:12:04;3.13;;;2.77;;
12921;SDS011;6528;48.086;16.282;2022-09-01T06:14:32;3.20;;;2.90;;
12921;SDS011;6528;48.086;16.282;2022-09-01T06:16:59;3.23;;;2.90;;
12921;SDS011;6528;48.086;16.282;2022-09-01T06:19:26;2.63;;;2.40;;
12921;SDS011;6528;48.086;16.282;2022-09-01T06:21:53;3.10;;;2.57;;
12921;SDS011;6528;48.086;16.282;2022-09-01T06:24:22;3.10;;;2.50;;
12921;SDS011;6528;48.086;16.282;2022-09-01T06:26:48;5.30;;;3.07;;
12921;SDS011;6528;48.086;16.282;2022-09-01T06:29:16;3.13;;;2.50;;
12921;SDS011;6528;48.086;16.282;2022-09-01T06:31:45;2.80;;;2.43;;
12921;SDS011;6528;48.086;16.282;2022-09-01T06:34:17;4.20;;;2.93;;
12921;SDS011;6528;48.086;16.282;2022-09-01T06:36:45;5.67;;;2.47;;
12921;SDS011;6528;48.086;16.282;2022-09-01T06:39:14;2.83;;;1.83;;
12921;SDS011;6528;48.086;16.282;2022-09-01T06:41:49;2.33;;;2.13;;
12921;SDS011;6528;48.086;16.282;2022-09-01T06:44:18;4.77;;;2.60;;
12921;SDS011;6528;48.086;16.282;2022-09-01T06:46:49;3.57;;;3.20;;
12921;SDS011;6528;48.086;16.282;2022-09-01T06:49:17;2.90;;;2.37;;
12921;SDS011;6528;48.086;16.282;2022-09-01T06:51:48;2.90;;;2.20;;
12921;SDS011;6528;48.086;16.282;2022-09-01T06:54:18;2.77;;;1.77;;
12921;SDS011;6528;48.086;16.282;2022-09-01T06:56:46;2.30;;;2.10;;
12921;SDS011;6528;48.086;16.282;2022-09-01T06:59:18;4.00;;;2.30;;
12921;SDS011;6528;48.086;16.282;2022-09-01T07:01:45;4.80;;;2.30;;
12921;SDS011;6528;48.086;16.282;2022-09-01T07:04:14;2.13;;;2.00;;
12921;SDS011;6528;48.086;16.282;2022-09-01T07:06:50;2.83;;;2.63;;
12921;SDS011;6528;48.086;16.282;2022-09-01T07:09:26;3.30;;;2.57;;
12921;SDS011;6528;48.086;16.282;2022-09-01T07:12:14;5.10;;;2.00;;
12921;SDS011;6528;48.086;16.282;2022-09-01T07:14:53;1.93;;;1.83;;
12921;SDS011;6528;48.086;16.282;2022-09-01T07:17:40;4.50;;;2.10;;
12921;SDS011;6528;48.086;16.282;2022-09-01T07:20:08;3.00;;;2.20;;
12921;SDS011;6528;48.086;16.282;2022-09-01T07:22:53;2.60;;;2.00;;
12921;SDS011;6528;48.086;16.282;2022-09-01T07:25:42;1.90;;;1.80;;
12921;SDS011;6528;48.086;16.282;2022-09-01T07:28:27;2.53;;;2.30;;
12921;SDS011;6528;48.086;16.282;2022-09-01T07:31:05;3.73;;;1.80;;
12921;SDS011;6528;48.086;16.282;2022-09-01T07:33:54;2.33;;;1.80;;
12921;SDS011;6528;48.086;16.282;2022-09-01T07:36:44;2.03;;;1.80;;
12921;SDS011;6528;48.086;16.282;2022-09-01T07:39:31;4.10;;;1.87;;
12921;SDS011;6528;48.086;16.282;2022-09-01T07:42:16;2.97;;;1.80;;
12921;SDS011;6528;48.086;16.282;2022-09-01T07:45:04;4.50;;;2.00;;
12921;SDS011;6528;48.086;16.282;2022-09-01T07:47:51;1.70;;;1.60;;
12921;SDS011;6528;48.086;16.282;2022-09-01T07:50:19;2.53;;;1.47;;
12921;SDS011;6528;48.086;16.282;2022-09-01T07:53:09;1.50;;;1.40;;
12921;SDS011;6528;48.086;16.282;2022-09-01T07:55:38;1.33;;;1.30;;
12921;SDS011;6528;48.086;16.282;2022-09-01T07:58:09;1.67;;;1.57;;
12921;SDS011;6528;48.086;16.282;2022-09-01T08:00:37;2.00;;;1.30;;
12921;SDS011;6528;48.086;16.282;2022-09-01T08:03:05;1.20;;;1.07;;
12921;SDS011;6528;48.086;16.282;2022-09-01T08:05:32;2.83;;;1.30;;
12921;SDS011;6528;48.086;16.282;2022-09-01T08:07:59;1.47;;;1.37;;
12921;SDS011;6528;48.086;16.282;2022-09-01T08:10:26;1.40;;;1.30;;
12921;SDS011;6528;48.086;16.282;2022-09-01T08:12:53;8.03;;;6.47;;
12921;SDS011;6528;48.086;16.282;2022-09-01T08:15:22;4.83;;;2.80;;
12921;SDS011;6528;48.086;16.282;2022-09-01T08:18:10;2.33;;;2.07;;
12921;SDS011;6528;48.086;16.282;2022-09-01T08:20:43;1.53;;;1.43;;
12921;SDS011;6528;48.086;16.282;2022-09-01T08:23:14;3.13;;;1.67;;
12921;SDS011;6528;48.086;16.282;2022-09-01T08:25:44;1.50;;;1.40;;
12921;SDS011;6528;48.086;16.282;2022-09-01T08:28:12;1.30;;;1.02;;
12921;SDS011;6528;48.086;16.282;2022-09-01T08:30:41;1.42;;;1.33;;
12921;SDS011;6528;48.086;16.282;2022-09-01T08:33:17;1.27;;;1.15;;
12921;SDS011;6528;48.086;16.282;2022-09-01T08:35:46;1.27;;;1.17;;
12921;SDS011;6528;48.086;16.282;2022-09-01T08:38:13;1.52;;;1.05;;
12921;SDS011;6528;48.086;16.282;2022-09-01T08:40:41;1.23;;;1.13;;
12921;SDS011;6528;48.086;16.282;2022-09-01T08:45:57;1.42;;;1.10;;
12921;SDS011;6528;48.086;16.282;2022-09-01T08:48:26;2.05;;;1.30;;
12921;SDS011;6528;48.086;16.282;2022-09-01T08:53:51;4.50;;;1.08;;
12921;SDS011;6528;48.086;16.282;2022-09-01T08:56:23;1.00;;;0.98;;
12921;SDS011;6528;48.086;16.282;2022-09-01T08:58:50;2.40;;;1.35;;
12921;SDS011;6528;48.086;16.282;2022-09-01T09:01:42;2.17;;;1.10;;
12921;SDS011;6528;48.086;16.282;2022-09-01T09:07:00;1.65;;;0.95;;
12921;SDS011;6528;48.086;16.282;2022-09-01T09:09:34;2.90;;;0.98;;
12921;SDS011;6528;48.086;16.282;2022-09-01T09:12:17;1.33;;;1.23;;
12921;SDS011;6528;48.086;16.282;2022-09-01T09:15:23;1.10;;;1.00;;
12921;SDS011;6528;48.086;16.282;2022-09-01T09:17:48;1.42;;;1.00;;
12921;SDS011;6528;48.086;16.282;2022-09-01T09:20:26;1.15;;;1.05;;
12921;SDS011;6528;48.086;16.282;2022-09-01T09:22:53;3.75;;;1.20;;
12921;SDS011;6528;48.086;16.282;2022-09-01T09:25:20;1.30;;;0.80;;
12921;SDS011;6528;48.086;16.282;2022-09-01T09:27:49;2.28;;;1.08;;
12921;SDS011;6528;48.086;16.282;2022-09-01T09:30:26;1.00;;;0.90;;
12921;SDS011;6528;48.086;16.282;2022-09-01T09:32:57;1.63;;;1.33;;
12921;SDS011;6528;48.086;16.282;2022-09-01T09:35:45;2.80;;;1.35;;
12921;SDS011;6528;48.086;16.282;2022-09-01T09:43:42;1.35;;;1.25;;
12921;SDS011;6528;48.086;16.282;2022-09-01T09:54:36;0.95;;;0.93;;
12921;SDS011;6528;48.086;16.282;2022-09-01T10:05:20;2.53;;;0.77;;
12921;SDS011;6528;48.086;16.282;2022-09-01T10:07:50;3.90;;;1.25;;
12921;SDS011;6528;48.086;16.282;2022-09-01T10:13:04;2.72;;;2.53;;
12921;SDS011;6528;48.086;16.282;2022-09-01T10:15:35;2.42;;;2.22;;
12921;SDS011;6528;48.086;16.282;2022-09-01T10:18:05;1.95;;;0.98;;
12921;SDS011;6528;48.086;16.282;2022-09-01T10:21:09;0.75;;;0.75;;
12921;SDS011;6528;48.086;16.282;2022-09-01T10:23:34;1.92;;;1.02;;
12921;SDS011;6528;48.086;16.282;2022-09-01T10:26:14;1.65;;;1.00;;
12921;SDS011;6528;48.086;16.282;2022-09-01T10:31:16;1.57;;;1.00;;
12921;SDS011;6528;48.086;16.282;2022-09-01T10:33:45;2.13;;;1.20;;
12921;SDS011;6528;48.086;16.282;2022-09-01T10:36:13;2.17;;;1.30;;
12921;SDS011;6528;48.086;16.282;2022-09-01T10:38:42;2.63;;;1.37;;
12921;SDS011;6528;48.086;16.282;2022-09-01T10:44:28;1.27;;;1.17;;
12921;SDS011;6528;48.086;16.282;2022-09-01T10:47:46;1.10;;;1.00;;
12921;SDS011;6528;48.086;16.282;2022-09-01T10:49:56;1.50;;;0.80;;
12921;SDS011;6528;48.086;16.282;2022-09-01T10:55:13;2.10;;;1.60;;
12921;SDS011;6528;48.086;16.282;2022-09-01T11:08:44;1.00;;;1.00;;
12921;SDS011;6528;48.086;16.282;2022-09-01T11:11:25;2.50;;;1.57;;
12921;SDS011;6528;48.086;16.282;2022-09-01T11:14:00;1.33;;;1.20;;
12921;SDS011;6528;48.086;16.282;2022-09-01T11:16:31;2.60;;;0.93;;
12921;SDS011;6528;48.086;16.282;2022-09-01T11:22:04;1.40;;;1.30;;
12921;SDS011;6528;48.086;16.282;2022-09-01T11:25:04;1.47;;;1.37;;
12921;SDS011;6528;48.086;16.282;2022-09-01T11:32:45;2.97;;;1.53;;
12921;SDS011;6528;48.086;16.282;2022-09-01T11:35:18;1.50;;;1.40;;
12921;SDS011;6528;48.086;16.282;2022-09-01T11:37:48;1.13;;;1.07;;
12921;SDS011;6528;48.086;16.282;2022-09-01T11:40:20;1.60;;;1.30;;
12921;SDS011;6528;48.086;16.282;2022-09-01T11:42:49;2.30;;;1.30;;
12921;SDS011;6528;48.086;16.282;2022-09-01T11:45:22;1.33;;;1.23;;
12921;SDS011;6528;48.086;16.282;2022-09-01T11:47:51;1.23;;;1.13;;
12921;SDS011;6528;48.086;16.282;2022-09-01T11:50:21;1.37;;;1.20;;
12921;SDS011;6528;48.086;16.282;2022-09-01T11:55:37;1.17;;;1.07;;
12921;SDS011;6528;48.086;16.282;2022-09-01T11:58:12;1.20;;;1.17;;
12921;SDS011;6528;48.086;16.282;2022-09-01T12:00:43;2.50;;;1.13;;
12921;SDS011;6528;48.086;16.282;2022-09-01T12:03:19;2.10;;;1.17;;
12921;SDS011;6528;48.086;16.282;2022-09-01T12:05:47;1.53;;;1.30;;
12921;SDS011;6528;48.086;16.282;2022-09-01T12:08:16;3.10;;;1.30;;
12921;SDS011;6528;48.086;16.282;2022-09-01T12:10:49;0.90;;;0.90;;
12921;SDS011;6528;48.086;16.282;2022-09-01T12:13:20;2.83;;;1.33;;
12921;SDS011;6528;48.086;16.282;2022-09-01T12:16:07;2.10;;;0.80;;
12921;SDS011;6528;48.086;16.282;2022-09-01T12:18:46;0.80;;;0.80;;
12921;SDS011;6528;48.086;16.282;2022-09-01T12:21:21;1.97;;;0.87;;
12921;SDS011;6528;48.086;16.282;2022-09-01T12:23:48;2.10;;;1.10;;
12921;SDS011;6528;48.086;16.282;2022-09-01T12:26:20;2.23;;;1.23;;
12921;SDS011;6528;48.086;16.282;2022-09-01T12:28:49;3.13;;;1.63;;
12921;SDS011;6528;48.086;16.282;2022-09-01T12:31:24;1.50;;;1.40;;
12921;SDS011;6528;48.086;16.282;2022-09-01T12:33:52;1.77;;;1.00;;
12921;SDS011;6528;48.086;16.282;2022-09-01T12:38:47;1.00;;;1.00;;
12921;SDS011;6528;48.086;16.282;2022-09-01T12:46:46;0.80;;;0.80;;
12921;SDS011;6528;48.086;16.282;2022-09-01T12:49:23;1.93;;;0.93;;
12921;SDS011;6528;48.086;16.282;2022-09-01T12:52:16;1.10;;;1.00;;
12921;SDS011;6528;48.086;16.282;2022-09-01T12:54:45;2.13;;;1.03;;
12921;SDS011;6528;48.086;16.282;2022-09-01T13:02:41;1.70;;;0.70;;
12921;SDS011;6528;48.086;16.282;2022-09-01T13:05:17;1.33;;;1.10;;
12921;SDS011;6528;48.086;16.282;2022-09-01T13:10:39;1.10;;;1.00;;
12921;SDS011;6528;48.086;16.282;2022-09-01T13:13:12;2.17;;;1.10;;
12921;SDS011;6528;48.086;16.282;2022-09-01T13:15:41;1.50;;;1.17;;
12921;SDS011;6528;48.086;16.282;2022-09-01T13:18:11;1.27;;;0.90;;
12921;SDS011;6528;48.086;16.282;2022-09-01T13:20:39;1.30;;;1.20;;
12921;SDS011;6528;48.086;16.282;2022-09-01T13:23:07;2.57;;;1.00;;
12921;SDS011;6528;48.086;16.282;2022-09-01T13:25:34;2.30;;;0.90;;
12921;SDS011;6528;48.086;16.282;2022-09-01T13:28:01;4.73;;;1.33;;
12921;SDS011;6528;48.086;16.282;2022-09-01T13:30:29;1.10;;;1.00;;
12921;SDS011;6528;48.086;16.282;2022-09-01T13:32:56;1.17;;;0.90;;
12921;SDS011;6528;48.086;16.282;2022-09-01T13:35:43;1.20;;;1.10;;
12921;SDS011;6528;48.086;16.282;2022-09-01T13:38:10;1.10;;;1.00;;
12921;SDS011;6528;48.086;16.282;2022-09-01T13:40:41;3.00;;;1.23;;
12921;SDS011;6528;48.086;16.282;2022-09-01T13:43:10;1.17;;;0.83;;
12921;SDS011;6528;48.086;16.282;2022-09-01T13:45:38;1.30;;;1.20;;
12921;SDS011;6528;48.086;16.282;2022-09-01T13:48:07;0.93;;;0.93;;
12921;SDS011;6528;48.086;16.282;2022-09-01T13:50:43;1.00;;;1.00;;
12921;SDS011;6528;48.086;16.282;2022-09-01T13:53:31;1.53;;;1.00;;
12921;SDS011;6528;48.086;16.282;2022-09-01T13:55:58;2.00;;;0.93;;
12921;SDS011;6528;48.086;16.282;2022-09-01T13:58:25;1.57;;;1.03;;
12921;SDS011;6528;48.086;16.282;2022-09-01T14:00:52;3.47;;;1.20;;
12921;SDS011;6528;48.086;16.282;2022-09-01T14:03:21;1.43;;;1.33;;
12921;SDS011;6528;48.086;16.282;2022-09-01T14:05:49;1.23;;;1.13;;
12921;SDS011;6528;48.086;16.282;2022-09-01T14:08:17;1.97;;;0.90;;
12921;SDS011;6528;48.086;16.282;2022-09-01T14:10:46;3.17;;;1.33;;
12921;SDS011;6528;48.086;16.282;2022-09-01T14:13:16;1.43;;;0.90;;
12921;SDS011;6528;48.086;16.282;2022-09-01T14:15:45;1.83;;;0.73;;
12921;SDS011;6528;48.086;16.282;2022-09-01T14:18:13;2.97;;;1.40;;
12921;SDS011;6528;48.086;16.282;2022-09-01T14:20:42;1.20;;;1.10;;
12921;SDS011;6528;48.086;16.282;2022-09-01T14:23:13;1.87;;;1.20;;
12921;SDS011;6528;48.086;16.282;2022-09-01T14:25:41;0.97;;;0.90;;
12921;SDS011;6528;48.086;16.282;2022-09-01T14:28:10;0.97;;;0.97;;
12921;SDS011;6528;48.086;16.282;2022-09-01T14:30:39;0.60;;;0.60;;
12921;SDS011;6528;48.086;16.282;2022-09-01T14:33:08;0.80;;;0.80;;
12921;SDS011;6528;48.086;16.282;2022-09-01T14:35:40;1.43;;;0.90;;
12921;SDS011;6528;48.086;16.282;2022-09-01T14:38:09;1.10;;;1.00;;
12921;SDS011;6528;48.086;16.282;2022-09-01T14:40:38;0.90;;;0.90;;
12921;SDS011;6528;48.086;16.282;2022-09-01T14:43:07;0.80;;;0.80;;
12921;SDS011;6528;48.086;16.282;2022-09-01T14:45:35;2.23;;;0.90;;
12921;SDS011;6528;48.086;16.282;2022-09-01T14:48:03;1.10;;;1.00;;
12921;SDS011;6528;48.086;16.282;2022-09-01T14:50:30;0.83;;;0.80;;
12921;SDS011;6528;48.086;16.282;2022-09-01T14:52:58;2.30;;;0.80;;
12921;SDS011;6528;48.086;16.282;2022-09-01T14:55:27;4.93;;;0.80;;
12921;SDS011;6528;48.086;16.282;2022-09-01T14:57:55;1.93;;;0.77;;
12921;SDS011;6528;48.086;16.282;2022-09-01T15:00:23;1.70;;;0.90;;
12921;SDS011;6528;48.086;16.282;2022-09-01T15:02:53;0.87;;;0.80;;
12921;SDS011;6528;48.086;16.282;2022-09-01T15:05:20;0.77;;;0.77;;
12921;SDS011;6528;48.086;16.282;2022-09-01T15:07:48;3.60;;;1.03;;
12921;SDS011;6528;48.086;16.282;2022-09-01T15:10:16;0.70;;;0.70;;
12921;SDS011;6528;48.086;16.282;2022-09-01T15:12:51;1.50;;;0.70;;
12921;SDS011;6528;48.086;16.282;2022-09-01T15:15:22;0.80;;;0.80;;
12921;SDS011;6528;48.086;16.282;2022-09-01T15:17:50;1.10;;;1.00;;
12921;SDS011;6528;48.086;16.282;2022-09-01T15:20:18;1.47;;;1.00;;
12921;SDS011;6528;48.086;16.282;2022-09-01T15:23:04;0.70;;;0.70;;
12921;SDS011;6528;48.086;16.282;2022-09-01T15:25:31;1.97;;;0.80;;
12921;SDS011;6528;48.086;16.282;2022-09-01T15:27:58;0.97;;;0.80;;
12921;SDS011;6528;48.086;16.282;2022-09-01T15:30:26;1.50;;;1.00;;
12921;SDS011;6528;48.086;16.282;2022-09-01T15:32:53;1.10;;;1.00;;
12921;SDS011;6528;48.086;16.282;2022-09-01T15:35:20;1.53;;;0.80;;
12921;SDS011;6528;48.086;16.282;2022-09-01T15:37:48;2.63;;;0.90;;
12921;SDS011;6528;48.086;16.282;2022-09-01T15:40:16;0.70;;;0.70;;
12921;SDS011;6528;48.086;16.282;2022-09-01T15:42:44;0.50;;;0.50;;
12921;SDS011;6528;48.086;16.282;2022-09-01T15:45:13;1.30;;;0.80;;
12921;SDS011;6528;48.086;16.282;2022-09-01T15:47:41;1.00;;;0.90;;
12921;SDS011;6528;48.086;16.282;2022-09-01T15:50:11;1.00;;;0.70;;
12921;SDS011;6528;48.086;16.282;2022-09-01T15:52:54;1.87;;;1.00;;
12921;SDS011;6528;48.086;16.282;2022-09-01T15:55:45;2.00;;;0.83;;
12921;SDS011;6528;48.086;16.282;2022-09-01T15:58:12;1.70;;;0.90;;
12921;SDS011;6528;48.086;16.282;2022-09-01T16:00:41;0.80;;;0.80;;
12921;SDS011;6528;48.086;16.282;2022-09-01T16:03:09;1.50;;;0.70;;
12921;SDS011;6528;48.086;16.282;2022-09-01T16:05:37;1.33;;;0.90;;
12921;SDS011;6528;48.086;16.282;2022-09-01T16:08:05;2.63;;;0.80;;
12921;SDS011;6528;48.086;16.282;2022-09-01T16:10:35;1.57;;;1.20;;
12921;SDS011;6528;48.086;16.282;2022-09-01T16:13:05;0.90;;;0.80;;
12921;SDS011;6528;48.086;16.282;2022-09-01T16:15:33;2.43;;;1.10;;
12921;SDS011;6528;48.086;16.282;2022-09-01T16:23:50;1.07;;;0.70;;
12921;SDS011;6528;48.086;16.282;2022-09-01T16:26:19;1.10;;;1.03;;
12921;SDS011;6528;48.086;16.282;2022-09-01T16:28:50;2.47;;;1.10;;
12921;SDS011;6528;48.086;16.282;2022-09-01T16:31:24;1.53;;;0.80;;
12921;SDS011;6528;48.086;16.282;2022-09-01T16:33:54;1.33;;;1.10;;
12921;SDS011;6528;48.086;16.282;2022-09-01T16:39:12;0.90;;;0.90;;
12921;SDS011;6528;48.086;16.282;2022-09-01T16:41:59;1.57;;;0.97;;
12921;SDS011;6528;48.086;16.282;2022-09-01T16:50:12;1.33;;;1.00;;
12921;SDS011;6528;48.086;16.282;2022-09-01T16:56:06;1.60;;;1.10;;
12921;SDS011;6528;48.086;16.282;2022-09-01T17:01:47;1.60;;;1.40;;
12921;SDS011;6528;48.086;16.282;2022-09-01T17:04:39;2.80;;;1.43;;